sensor_id;sensor_type;location;lat;lon;timestamp;temperature;humidity
4453;DHT22;2239;48.152;11.584;2024-01-10T00:00:10;-5.90;99.90
4453;DHT22;2239;48.152;11.584;2024-01-10T00:02:36;-5.90;99.90
4453;DHT22;2239;48.152;11.584;2024-01-10T00:05:01;-5.90;99.90
4453;DHT22;2239;48.152;11.584;2024-01-10T00:07:27;-5.90;99.90
4453;DHT22;2239;48.152;11.584;2024-01-10T00:09:52;-5.90;99.90
4453;DHT22;2239;48.152;11.584;2024-01-10T00:12:18;-5.90;99.90
4453;DHT22;2239;48.152;11.584;2024-01-10T00:14:43;-5.90;99.90
4453;DHT22;2239;48.152;11.584;2024-01-10T00:17:09;-5.90;99.90
4453;DHT22;2239;48.152;11.584;2024-01-10T00:19:34;-5.90;99.90
4453;DHT22;2239;48.152;11.584;2024-01-10T00:22:01;-5.80;99.90
4453;DHT22;2239;48.152;11.584;2024-01-10T00:24:26;-5.90;99.90
4453;DHT22;2239;48.152;11.584;2024-01-10T00:26:52;-5.90;99.90
4453;DHT22;2239;48.152;11.584;2024-01-10T00:29:17;-5.90;99.90
4453;DHT22;2239;48.152;11.584;2024-01-10T00:31:44;-5.80;99.90
4453;DHT22;2239;48.152;11.584;2024-01-10T00:34:09;-5.80;99.90
4453;DHT22;2239;48.152;11.584;2024-01-10T00:36:35;-5.70;99.90
4453;DHT22;2239;48.152;11.584;2024-01-10T00:39:00;-5.60;99.90
4453;DHT22;2239;48.152;11.584;2024-01-10T00:41:26;-5.60;99.90
4453;DHT22;2239;48.152;11.584;2024-01-10T00:43:52;-5.50;99.90
4453;DHT22;2239;48.152;11.584;2024-01-10T00:46:17;-5.50;99.90
4453;DHT22;2239;48.152;11.584;2024-01-10T00:48:43;-5.40;99.90
4453;DHT22;2239;48.152;11.584;2024-01-10T00:51:08;-5.30;99.90
4453;DHT22;2239;48.152;11.584;2024-01-10T00:53:35;-5.30;99.90
4453;DHT22;2239;48.152;11.584;2024-01-10T00:56:01;-5.40;99.90
4453;DHT22;2239;48.152;11.584;2024-01-10T00:58:26;-5.40;99.90
4453;DHT22;2239;48.152;11.584;2024-01-10T01:00:52;-5.40;99.90
4453;DHT22;2239;48.152;11.584;2024-01-10T01:03:17;-5.30;99.90
4453;DHT22;2239;48.152;11.584;2024-01-10T01:05:43;-5.20;99.90
4453;DHT22;2239;48.152;11.584;2024-01-10T01:08:08;-5.20;99.90
4453;DHT22;2239;48.152;11.584;2024-01-10T01:10:34;-5.20;99.90
4453;DHT22;2239;48.152;11.584;2024-01-10T01:13:00;-5.10;99.90
4453;DHT22;2239;48.152;11.584;2024-01-10T01:15:25;-5.10;99.90
4453;DHT22;2239;48.152;11.584;2024-01-10T01:17:51;-5.10;99.90
4453;DHT22;2239;48.152;11.584;2024-01-10T01:20:16;-5.10;99.90
4453;DHT22;2239;48.152;11.584;2024-01-10T01:22:42;-5.00;99.90
4453;DHT22;2239;48.152;11.584;2024-01-10T01:25:07;-5.00;99.90
4453;DHT22;2239;48.152;11.584;2024-01-10T01:27:34;-5.00;99.90
4453;DHT22;2239;48.152;11.584;2024-01-10T01:29:59;-5.00;99.90
4453;DHT22;2239;48.152;11.584;2024-01-10T01:32:25;-5.00;99.90
4453;DHT22;2239;48.152;11.584;2024-01-10T01:34:51;-5.00;99.90
4453;DHT22;2239;48.152;11.584;2024-01-10T01:37:16;-5.00;99.90
4453;DHT22;2239;48.152;11.584;2024-01-10T01:39:42;-4.90;99.90
4453;DHT22;2239;48.152;11.584;2024-01-10T01:42:07;-4.90;99.90
4453;DHT22;2239;48.152;11.584;2024-01-10T01:44:33;-4.90;99.90
4453;DHT22;2239;48.152;11.584;2024-01-10T01:46:58;-4.90;99.90
4453;DHT22;2239;48.152;11.584;2024-01-10T01:49:25;-4.80;99.90
4453;DHT22;2239;48.152;11.584;2024-01-10T01:51:52;-4.80;99.90
4453;DHT22;2239;48.152;11.584;2024-01-10T01:54:18;-4.80;99.90
4453;DHT22;2239;48.152;11.584;2024-01-10T01:56:45;-4.80;99.90
4453;DHT22;2239;48.152;11.584;2024-01-10T01:59:11;-4.80;99.90
4453;DHT22;2239;48.152;11.584;2024-01-10T02:01:37;-4.80;99.90
4453;DHT22;2239;48.152;11.584;2024-01-10T02:04:03;-4.80;99.90
4453;DHT22;2239;48.152;11.584;2024-01-10T02:06:29;-4.70;99.90
4453;DHT22;2239;48.152;11.584;2024-01-10T02:08:56;-4.70;99.90
4453;DHT22;2239;48.152;11.584;2024-01-10T02:11:23;-4.80;99.90
4453;DHT22;2239;48.152;11.584;2024-01-10T02:13:49;-4.80;99.90
4453;DHT22;2239;48.152;11.584;2024-01-10T02:16:15;-4.70;99.90
4453;DHT22;2239;48.152;11.584;2024-01-10T02:18:40;-4.60;99.90
4453;DHT22;2239;48.152;11.584;2024-01-10T02:21:06;-4.60;99.90
4453;DHT22;2239;48.152;11.584;2024-01-10T02:23:31;-4.60;99.90
4453;DHT22;2239;48.152;11.584;2024-01-10T02:25:57;-4.60;99.90
4453;DHT22;2239;48.152;11.584;2024-01-10T02:28:22;-4.60;99.90
4453;DHT22;2239;48.152;11.584;2024-01-10T02:30:52;-4.60;99.90
4453;DHT22;2239;48.152;11.584;2024-01-10T02:33:19;-4.50;99.90
4453;DHT22;2239;48.152;11.584;2024-01-10T02:35:45;-4.50;99.90
4453;DHT22;2239;48.152;11.584;2024-01-10T02:38:10;-4.50;99.90
4453;DHT22;2239;48.152;11.584;2024-01-10T02:40:39;-4.50;99.90
4453;DHT22;2239;48.152;11.584;2024-01-10T02:43:05;-4.50;99.90
4453;DHT22;2239;48.152;11.584;2024-01-10T02:45:32;-4.50;99.90
4453;DHT22;2239;48.152;11.584;2024-01-10T02:47:57;-4.50;99.90
4453;DHT22;2239;48.152;11.584;2024-01-10T02:50:23;-4.50;99.90
4453;DHT22;2239;48.152;11.584;2024-01-10T02:52:48;-4.50;99.90
4453;DHT22;2239;48.152;11.584;2024-01-10T02:55:14;-4.50;99.90
4453;DHT22;2239;48.152;11.584;2024-01-10T02:57:40;-4.50;99.90
4453;DHT22;2239;48.152;11.584;2024-01-10T03:00:06;-4.50;99.90
4453;DHT22;2239;48.152;11.584;2024-01-10T03:02:32;-4.50;99.90
4453;DHT22;2239;48.152;11.584;2024-01-10T03:04:57;-4.70;99.90
4453;DHT22;2239;48.152;11.584;2024-01-10T03:07:23;-4.70;99.90
4453;DHT22;2239;48.152;11.584;2024-01-10T03:09:50;-4.70;99.90
4453;DHT22;2239;48.152;11.584;2024-01-10T03:12:16;-4.60;99.90
4453;DHT22;2239;48.152;11.584;2024-01-10T03:14:41;-4.60;99.90
4453;DHT22;2239;48.152;11.584;2024-01-10T03:17:07;-4.60;99.90
4453;DHT22;2239;48.152;11.584;2024-01-10T03:19:32;-4.60;99.90
4453;DHT22;2239;48.152;11.584;2024-01-10T03:21:58;-4.60;99.90
4453;DHT22;2239;48.152;11.584;2024-01-10T03:24:23;-4.60;99.90
4453;DHT22;2239;48.152;11.584;2024-01-10T03:26:52;-4.60;99.90
4453;DHT22;2239;48.152;11.584;2024-01-10T03:29:17;-4.60;99.90
4453;DHT22;2239;48.152;11.584;2024-01-10T03:31:43;-4.60;99.90
4453;DHT22;2239;48.152;11.584;2024-01-10T03:34:09;-4.60;99.90
4453;DHT22;2239;48.152;11.584;2024-01-10T03:36:34;-4.70;99.90
4453;DHT22;2239;48.152;11.584;2024-01-10T03:39:00;-4.80;99.90
4453;DHT22;2239;48.152;11.584;2024-01-10T03:41:25;-4.90;99.90
4453;DHT22;2239;48.152;11.584;2024-01-10T03:43:51;-4.90;99.90
4453;DHT22;2239;48.152;11.584;2024-01-10T03:46:17;-5.00;99.90
4453;DHT22;2239;48.152;11.584;2024-01-10T03:48:43;-5.00;99.90
4453;DHT22;2239;48.152;11.584;2024-01-10T03:51:18;-4.90;99.90
4453;DHT22;2239;48.152;11.584;2024-01-10T03:53:44;-5.00;99.90
4453;DHT22;2239;48.152;11.584;2024-01-10T03:56:10;-5.00;99.90
4453;DHT22;2239;48.152;11.584;2024-01-10T03:58:36;-5.10;99.90
4453;DHT22;2239;48.152;11.584;2024-01-10T04:01:06;-5.10;99.90
4453;DHT22;2239;48.152;11.584;2024-01-10T04:03:32;-5.10;99.90
4453;DHT22;2239;48.152;11.584;2024-01-10T04:05:58;-5.10;99.90
4453;DHT22;2239;48.152;11.584;2024-01-10T04:08:23;-5.10;99.90
4453;DHT22;2239;48.152;11.584;2024-01-10T04:10:49;-5.20;99.90
4453;DHT22;2239;48.152;11.584;2024-01-10T04:13:15;-5.10;99.90
4453;DHT22;2239;48.152;11.584;2024-01-10T04:15:40;-5.10;99.90
4453;DHT22;2239;48.152;11.584;2024-01-10T04:18:06;-5.10;99.90
4453;DHT22;2239;48.152;11.584;2024-01-10T04:20:32;-5.20;99.90
4453;DHT22;2239;48.152;11.584;2024-01-10T04:22:57;-5.20;99.90
4453;DHT22;2239;48.152;11.584;2024-01-10T04:25:23;-5.30;99.90
4453;DHT22;2239;48.152;11.584;2024-01-10T04:27:48;-5.30;99.90
4453;DHT22;2239;48.152;11.584;2024-01-10T04:30:15;-5.40;99.90
4453;DHT22;2239;48.152;11.584;2024-01-10T04:32:41;-5.40;99.90
4453;DHT22;2239;48.152;11.584;2024-01-10T04:35:07;-5.30;99.90
4453;DHT22;2239;48.152;11.584;2024-01-10T04:37:32;-5.30;99.90
4453;DHT22;2239;48.152;11.584;2024-01-10T04:39:58;-5.40;99.90
4453;DHT22;2239;48.152;11.584;2024-01-10T04:42:23;-5.40;99.90
4453;DHT22;2239;48.152;11.584;2024-01-10T04:44:49;-5.30;99.90
4453;DHT22;2239;48.152;11.584;2024-01-10T04:47:15;-5.30;99.90
4453;DHT22;2239;48.152;11.584;2024-01-10T04:49:41;-5.30;99.90
4453;DHT22;2239;48.152;11.584;2024-01-10T04:52:06;-5.30;99.90
4453;DHT22;2239;48.152;11.584;2024-01-10T04:54:32;-5.20;99.90
4453;DHT22;2239;48.152;11.584;2024-01-10T04:56:57;-5.20;99.90
4453;DHT22;2239;48.152;11.584;2024-01-10T04:59:23;-5.20;99.90
4453;DHT22;2239;48.152;11.584;2024-01-10T05:01:48;-5.20;99.90
4453;DHT22;2239;48.152;11.584;2024-01-10T05:04:14;-5.20;99.90
4453;DHT22;2239;48.152;11.584;2024-01-10T05:06:40;-5.10;99.90
4453;DHT22;2239;48.152;11.584;2024-01-10T05:09:05;-5.10;99.90
4453;DHT22;2239;48.152;11.584;2024-01-10T05:11:32;-5.10;99.90
4453;DHT22;2239;48.152;11.584;2024-01-10T05:13:57;-5.20;99.90
4453;DHT22;2239;48.152;11.584;2024-01-10T05:16:23;-5.10;99.90
4453;DHT22;2239;48.152;11.584;2024-01-10T05:18:48;-5.00;99.90
4453;DHT22;2239;48.152;11.584;2024-01-10T05:21:14;-5.10;99.90
4453;DHT22;2239;48.152;11.584;2024-01-10T05:23:39;-5.10;99.90
4453;DHT22;2239;48.152;11.584;2024-01-10T05:26:05;-5.10;99.90
4453;DHT22;2239;48.152;11.584;2024-01-10T05:28:31;-5.10;99.90
4453;DHT22;2239;48.152;11.584;2024-01-10T05:30:58;-5.10;99.90
4453;DHT22;2239;48.152;11.584;2024-01-10T05:33:23;-5.10;99.90
4453;DHT22;2239;48.152;11.584;2024-01-10T05:35:49;-5.10;99.90
4453;DHT22;2239;48.152;11.584;2024-01-10T05:38:14;-5.10;99.90
4453;DHT22;2239;48.152;11.584;2024-01-10T05:40:40;-5.10;99.90
4453;DHT22;2239;48.152;11.584;2024-01-10T05:43:06;-5.10;99.90
4453;DHT22;2239;48.152;11.584;2024-01-10T05:45:32;-5.20;99.90
4453;DHT22;2239;48.152;11.584;2024-01-10T05:47:58;-5.20;99.90
4453;DHT22;2239;48.152;11.584;2024-01-10T05:50:23;-5.30;99.90
4453;DHT22;2239;48.152;11.584;2024-01-10T05:52:49;-5.30;99.90
4453;DHT22;2239;48.152;11.584;2024-01-10T05:55:14;-5.30;99.90
4453;DHT22;2239;48.152;11.584;2024-01-10T05:57:40;-5.30;99.90
4453;DHT22;2239;48.152;11.584;2024-01-10T06:00:06;-5.30;99.90
4453;DHT22;2239;48.152;11.584;2024-01-10T06:02:38;-5.30;99.90
4453;DHT22;2239;48.152;11.584;2024-01-10T06:05:06;-5.30;99.90
4453;DHT22;2239;48.152;11.584;2024-01-10T06:07:32;-5.20;99.90
4453;DHT22;2239;48.152;11.584;2024-01-10T06:09:57;-5.20;99.90
4453;DHT22;2239;48.152;11.584;2024-01-10T06:12:23;-5.20;99.90
4453;DHT22;2239;48.152;11.584;2024-01-10T06:14:49;-5.10;99.90
4453;DHT22;2239;48.152;11.584;2024-01-10T06:17:15;-5.20;99.90
4453;DHT22;2239;48.152;11.584;2024-01-10T06:19:41;-5.20;99.90
4453;DHT22;2239;48.152;11.584;2024-01-10T06:22:06;-5.20;99.90
4453;DHT22;2239;48.152;11.584;2024-01-10T06:24:32;-5.10;99.90
4453;DHT22;2239;48.152;11.584;2024-01-10T06:26:57;-5.10;99.90
4453;DHT22;2239;48.152;11.584;2024-01-10T06:29:24;-5.20;99.90
4453;DHT22;2239;48.152;11.584;2024-01-10T06:31:50;-5.20;99.90
4453;DHT22;2239;48.152;11.584;2024-01-10T06:34:15;-5.20;99.90
4453;DHT22;2239;48.152;11.584;2024-01-10T06:36:41;-5.30;99.90
4453;DHT22;2239;48.152;11.584;2024-01-10T06:39:09;-5.40;99.90
4453;DHT22;2239;48.152;11.584;2024-01-10T06:41:38;-5.30;99.90
4453;DHT22;2239;48.152;11.584;2024-01-10T06:44:04;-5.20;99.90
4453;DHT22;2239;48.152;11.584;2024-01-10T06:46:29;-5.20;99.90
4453;DHT22;2239;48.152;11.584;2024-01-10T06:48:56;-5.20;99.90
4453;DHT22;2239;48.152;11.584;2024-01-10T06:51:21;-5.30;99.90
4453;DHT22;2239;48.152;11.584;2024-01-10T06:53:47;-5.30;99.90
4453;DHT22;2239;48.152;11.584;2024-01-10T06:56:12;-5.40;99.90
4453;DHT22;2239;48.152;11.584;2024-01-10T06:58:39;-5.40;99.90
4453;DHT22;2239;48.152;11.584;2024-01-10T07:01:10;-5.30;99.90
4453;DHT22;2239;48.152;11.584;2024-01-10T07:03:36;-5.30;99.90
4453;DHT22;2239;48.152;11.584;2024-01-10T07:06:02;-5.30;99.90
4453;DHT22;2239;48.152;11.584;2024-01-10T07:08:27;-5.40;99.90
4453;DHT22;2239;48.152;11.584;2024-01-10T07:10:53;-5.40;99.90
4453;DHT22;2239;48.152;11.584;2024-01-10T07:13:21;-5.30;99.90
4453;DHT22;2239;48.152;11.584;2024-01-10T07:15:47;-5.30;99.90
4453;DHT22;2239;48.152;11.584;2024-01-10T07:18:12;-5.40;99.90
4453;DHT22;2239;48.152;11.584;2024-01-10T07:20:38;-5.30;99.90
4453;DHT22;2239;48.152;11.584;2024-01-10T07:23:04;-5.30;99.90
4453;DHT22;2239;48.152;11.584;2024-01-10T07:25:29;-5.30;99.90
4453;DHT22;2239;48.152;11.584;2024-01-10T07:27:55;-5.30;99.90
4453;DHT22;2239;48.152;11.584;2024-01-10T07:30:20;-5.30;99.90
4453;DHT22;2239;48.152;11.584;2024-01-10T07:32:46;-5.20;99.90
4453;DHT22;2239;48.152;11.584;2024-01-10T07:35:12;-5.20;99.90
4453;DHT22;2239;48.152;11.584;2024-01-10T07:37:42;-5.10;99.90
4453;DHT22;2239;48.152;11.584;2024-01-10T07:40:10;-4.80;99.90
4453;DHT22;2239;48.152;11.584;2024-01-10T07:42:39;-4.50;99.90
4453;DHT22;2239;48.152;11.584;2024-01-10T07:45:05;-4.10;99.90
4453;DHT22;2239;48.152;11.584;2024-01-10T07:47:31;-3.80;99.90
4453;DHT22;2239;48.152;11.584;2024-01-10T07:49:57;-3.60;99.90
4453;DHT22;2239;48.152;11.584;2024-01-10T07:52:23;-3.20;99.90
4453;DHT22;2239;48.152;11.584;2024-01-10T07:54:49;-2.70;99.90
4453;DHT22;2239;48.152;11.584;2024-01-10T07:57:14;-2.40;99.90
4453;DHT22;2239;48.152;11.584;2024-01-10T07:59:40;-2.20;99.90
4453;DHT22;2239;48.152;11.584;2024-01-10T08:02:05;-1.70;99.90
4453;DHT22;2239;48.152;11.584;2024-01-10T08:04:31;-1.30;99.90
4453;DHT22;2239;48.152;11.584;2024-01-10T08:06:56;-0.90;99.90
4453;DHT22;2239;48.152;11.584;2024-01-10T08:09:22;-0.10;99.90
4453;DHT22;2239;48.152;11.584;2024-01-10T08:11:51;0.40;95.60
4453;DHT22;2239;48.152;11.584;2024-01-10T08:14:16;0.10;95.80
4453;DHT22;2239;48.152;11.584;2024-01-10T08:16:42;0.50;95.20
4453;DHT22;2239;48.152;11.584;2024-01-10T08:19:08;1.00;94.20
4453;DHT22;2239;48.152;11.584;2024-01-10T08:21:34;0.90;93.40
4453;DHT22;2239;48.152;11.584;2024-01-10T08:24:01;0.40;93.80
4453;DHT22;2239;48.152;11.584;2024-01-10T08:26:27;0.10;94.50
4453;DHT22;2239;48.152;11.584;2024-01-10T08:28:53;0.20;94.50
4453;DHT22;2239;48.152;11.584;2024-01-10T08:31:19;0.70;93.20
4453;DHT22;2239;48.152;11.584;2024-01-10T08:33:44;1.10;92.60
4453;DHT22;2239;48.152;11.584;2024-01-10T08:36:13;1.50;91.80
4453;DHT22;2239;48.152;11.584;2024-01-10T08:38:40;1.50;91.30
4453;DHT22;2239;48.152;11.584;2024-01-10T08:41:08;2.30;90.10
4453;DHT22;2239;48.152;11.584;2024-01-10T08:43:34;3.20;87.20
4453;DHT22;2239;48.152;11.584;2024-01-10T08:46:02;3.90;82.70
4453;DHT22;2239;48.152;11.584;2024-01-10T08:48:27;4.00;77.80
4453;DHT22;2239;48.152;11.584;2024-01-10T08:50:53;3.30;78.70
4453;DHT22;2239;48.152;11.584;2024-01-10T08:53:21;3.00;80.30
4453;DHT22;2239;48.152;11.584;2024-01-10T08:55:47;2.60;80.90
4453;DHT22;2239;48.152;11.584;2024-01-10T08:58:12;1.90;82.50
4453;DHT22;2239;48.152;11.584;2024-01-10T09:00:38;1.50;83.90
4453;DHT22;2239;48.152;11.584;2024-01-10T09:03:04;0.60;86.60
4453;DHT22;2239;48.152;11.584;2024-01-10T09:05:30;0.30;89.90
4453;DHT22;2239;48.152;11.584;2024-01-10T09:07:55;0.20;90.60
4453;DHT22;2239;48.152;11.584;2024-01-10T09:10:22;0.80;89.60
4453;DHT22;2239;48.152;11.584;2024-01-10T09:12:53;1.20;89.90
4453;DHT22;2239;48.152;11.584;2024-01-10T09:15:19;0.40;88.50
4453;DHT22;2239;48.152;11.584;2024-01-10T09:17:45;0.10;90.60
4453;DHT22;2239;48.152;11.584;2024-01-10T09:20:11;-0.20;91.30
4453;DHT22;2239;48.152;11.584;2024-01-10T09:22:38;-0.50;92.20
4453;DHT22;2239;48.152;11.584;2024-01-10T09:25:04;-0.60;92.50
4453;DHT22;2239;48.152;11.584;2024-01-10T09:27:32;-0.90;93.50
4453;DHT22;2239;48.152;11.584;2024-01-10T09:29:57;-0.70;94.40
4453;DHT22;2239;48.152;11.584;2024-01-10T09:32:23;-0.70;94.10
4453;DHT22;2239;48.152;11.584;2024-01-10T09:34:48;-0.50;93.80
4453;DHT22;2239;48.152;11.584;2024-01-10T09:37:14;-0.90;93.80
4453;DHT22;2239;48.152;11.584;2024-01-10T09:39:40;-0.70;95.00
4453;DHT22;2239;48.152;11.584;2024-01-10T09:42:06;-1.00;94.70
4453;DHT22;2239;48.152;11.584;2024-01-10T09:44:32;-0.60;94.40
4453;DHT22;2239;48.152;11.584;2024-01-10T09:46:58;-0.30;93.20
4453;DHT22;2239;48.152;11.584;2024-01-10T09:49:25;-0.30;92.90
4453;DHT22;2239;48.152;11.584;2024-01-10T09:51:57;0.10;92.50
4453;DHT22;2239;48.152;11.584;2024-01-10T09:54:24;0.40;92.50
4453;DHT22;2239;48.152;11.584;2024-01-10T09:56:51;1.10;92.10
4453;DHT22;2239;48.152;11.584;2024-01-10T09:59:16;2.00;90.90
4453;DHT22;2239;48.152;11.584;2024-01-10T10:01:43;3.10;87.00
4453;DHT22;2239;48.152;11.584;2024-01-10T10:04:12;3.40;83.10
4453;DHT22;2239;48.152;11.584;2024-01-10T10:06:37;3.90;81.60
4453;DHT22;2239;48.152;11.584;2024-01-10T10:09:03;4.20;78.70
4453;DHT22;2239;48.152;11.584;2024-01-10T10:11:30;4.50;77.90
4453;DHT22;2239;48.152;11.584;2024-01-10T10:13:55;4.80;76.10
4453;DHT22;2239;48.152;11.584;2024-01-10T10:16:25;5.40;73.40
4453;DHT22;2239;48.152;11.584;2024-01-10T10:18:51;5.80;70.70
4453;DHT22;2239;48.152;11.584;2024-01-10T10:21:24;6.10;68.20
4453;DHT22;2239;48.152;11.584;2024-01-10T10:24:00;5.80;67.50
4453;DHT22;2239;48.152;11.584;2024-01-10T10:26:27;6.20;66.40
4453;DHT22;2239;48.152;11.584;2024-01-10T10:28:53;6.60;64.90
4453;DHT22;2239;48.152;11.584;2024-01-10T10:31:19;6.40;63.10
4453;DHT22;2239;48.152;11.584;2024-01-10T10:33:46;5.30;64.50
4453;DHT22;2239;48.152;11.584;2024-01-10T10:36:14;5.70;66.90
4453;DHT22;2239;48.152;11.584;2024-01-10T10:38:40;6.60;65.10
4453;DHT22;2239;48.152;11.584;2024-01-10T10:41:06;6.90;61.60
4453;DHT22;2239;48.152;11.584;2024-01-10T10:43:39;7.30;60.50
4453;DHT22;2239;48.152;11.584;2024-01-10T10:46:05;7.70;58.70
4453;DHT22;2239;48.152;11.584;2024-01-10T10:48:40;7.90;58.80
4453;DHT22;2239;48.152;11.584;2024-01-10T10:51:19;8.30;56.40
4453;DHT22;2239;48.152;11.584;2024-01-10T10:53:49;8.70;54.80
4453;DHT22;2239;48.152;11.584;2024-01-10T10:56:16;9.20;53.20
4453;DHT22;2239;48.152;11.584;2024-01-10T10:58:43;9.10;53.10
4453;DHT22;2239;48.152;11.584;2024-01-10T11:01:11;9.00;53.20
4453;DHT22;2239;48.152;11.584;2024-01-10T11:03:39;8.30;52.80
4453;DHT22;2239;48.152;11.584;2024-01-10T11:06:06;7.60;54.50
4453;DHT22;2239;48.152;11.584;2024-01-10T11:08:47;7.30;56.00
4453;DHT22;2239;48.152;11.584;2024-01-10T11:25:15;7.30;58.40
4453;DHT22;2239;48.152;11.584;2024-01-10T11:27:42;7.00;71.20
4453;DHT22;2239;48.152;11.584;2024-01-10T11:30:09;6.40;74.20
4453;DHT22;2239;48.152;11.584;2024-01-10T11:32:35;6.60;71.80
4453;DHT22;2239;48.152;11.584;2024-01-10T11:35:15;6.20;70.00
4453;DHT22;2239;48.152;11.584;2024-01-10T11:37:44;6.10;69.90
4453;DHT22;2239;48.152;11.584;2024-01-10T11:40:12;4.90;68.10
4453;DHT22;2239;48.152;11.584;2024-01-10T11:42:41;3.70;71.30
4453;DHT22;2239;48.152;11.584;2024-01-10T11:45:07;2.60;75.30
4453;DHT22;2239;48.152;11.584;2024-01-10T11:47:33;1.90;79.80
4453;DHT22;2239;48.152;11.584;2024-01-10T11:50:02;1.30;86.20
4453;DHT22;2239;48.152;11.584;2024-01-10T11:52:34;0.80;90.00
4453;DHT22;2239;48.152;11.584;2024-01-10T11:55:00;0.20;92.10
4453;DHT22;2239;48.152;11.584;2024-01-10T11:57:27;-0.30;93.90
4453;DHT22;2239;48.152;11.584;2024-01-10T11:59:54;-0.70;96.20
4453;DHT22;2239;48.152;11.584;2024-01-10T12:02:22;-1.10;98.50
4453;DHT22;2239;48.152;11.584;2024-01-10T12:04:49;-1.40;99.90
4453;DHT22;2239;48.152;11.584;2024-01-10T12:07:16;-1.40;99.90
4453;DHT22;2239;48.152;11.584;2024-01-10T12:09:42;-1.60;99.90
4453;DHT22;2239;48.152;11.584;2024-01-10T12:12:07;-1.80;99.90
4453;DHT22;2239;48.152;11.584;2024-01-10T12:14:34;-1.90;99.90
4453;DHT22;2239;48.152;11.584;2024-01-10T12:17:00;-2.10;99.90
4453;DHT22;2239;48.152;11.584;2024-01-10T12:19:26;-2.20;99.90
4453;DHT22;2239;48.152;11.584;2024-01-10T12:21:51;-2.30;99.90
4453;DHT22;2239;48.152;11.584;2024-01-10T12:24:18;-2.30;99.90
4453;DHT22;2239;48.152;11.584;2024-01-10T12:26:44;-2.30;99.90
4453;DHT22;2239;48.152;11.584;2024-01-10T12:29:10;-2.30;99.90
4453;DHT22;2239;48.152;11.584;2024-01-10T12:31:37;-2.40;99.90
4453;DHT22;2239;48.152;11.584;2024-01-10T12:34:03;-2.40;99.90
4453;DHT22;2239;48.152;11.584;2024-01-10T12:36:28;-2.40;99.90
4453;DHT22;2239;48.152;11.584;2024-01-10T12:38:54;-2.40;99.90
4453;DHT22;2239;48.152;11.584;2024-01-10T12:41:20;-2.50;99.90
4453;DHT22;2239;48.152;11.584;2024-01-10T12:43:54;-2.50;99.90
4453;DHT22;2239;48.152;11.584;2024-01-10T12:46:21;-2.50;99.90
4453;DHT22;2239;48.152;11.584;2024-01-10T12:49:01;-2.50;99.90
4453;DHT22;2239;48.152;11.584;2024-01-10T12:51:29;-2.70;99.90
4453;DHT22;2239;48.152;11.584;2024-01-10T12:53:55;-2.80;99.90
4453;DHT22;2239;48.152;11.584;2024-01-10T12:56:22;-2.80;99.90
4453;DHT22;2239;48.152;11.584;2024-01-10T12:58:47;-2.70;99.90
4453;DHT22;2239;48.152;11.584;2024-01-10T13:01:13;-2.70;99.90
4453;DHT22;2239;48.152;11.584;2024-01-10T13:03:40;-2.60;99.90
4453;DHT22;2239;48.152;11.584;2024-01-10T13:06:05;-2.50;99.90
4453;DHT22;2239;48.152;11.584;2024-01-10T13:08:31;-2.40;99.90
4453;DHT22;2239;48.152;11.584;2024-01-10T13:11:00;-2.20;99.90
4453;DHT22;2239;48.152;11.584;2024-01-10T13:13:25;-2.10;99.90
4453;DHT22;2239;48.152;11.584;2024-01-10T13:15:51;-2.10;99.90
4453;DHT22;2239;48.152;11.584;2024-01-10T13:18:17;-2.20;99.90
4453;DHT22;2239;48.152;11.584;2024-01-10T13:20:43;-2.10;99.90
4453;DHT22;2239;48.152;11.584;2024-01-10T13:23:08;-2.00;99.90
4453;DHT22;2239;48.152;11.584;2024-01-10T13:25:35;-1.90;99.90
4453;DHT22;2239;48.152;11.584;2024-01-10T13:28:05;-2.00;99.90
4453;DHT22;2239;48.152;11.584;2024-01-10T13:30:31;-2.10;99.90
4453;DHT22;2239;48.152;11.584;2024-01-10T13:32:57;-2.40;99.90
4453;DHT22;2239;48.152;11.584;2024-01-10T13:35:23;-2.60;99.90
4453;DHT22;2239;48.152;11.584;2024-01-10T13:37:49;-2.70;99.90
4453;DHT22;2239;48.152;11.584;2024-01-10T13:40:15;-2.80;99.90
4453;DHT22;2239;48.152;11.584;2024-01-10T13:42:43;-2.90;99.90
4453;DHT22;2239;48.152;11.584;2024-01-10T13:45:09;-2.90;99.90
4453;DHT22;2239;48.152;11.584;2024-01-10T13:47:38;-3.10;99.90
4453;DHT22;2239;48.152;11.584;2024-01-10T13:50:05;-3.20;99.90
4453;DHT22;2239;48.152;11.584;2024-01-10T13:52:35;-3.20;99.90
4453;DHT22;2239;48.152;11.584;2024-01-10T13:55:01;-3.10;99.90
4453;DHT22;2239;48.152;11.584;2024-01-10T13:57:27;-3.10;99.90
4453;DHT22;2239;48.152;11.584;2024-01-10T13:59:53;-3.30;99.90
4453;DHT22;2239;48.152;11.584;2024-01-10T14:02:22;-3.30;99.90
4453;DHT22;2239;48.152;11.584;2024-01-10T14:04:48;-3.30;99.90
4453;DHT22;2239;48.152;11.584;2024-01-10T14:07:13;-3.30;99.90
4453;DHT22;2239;48.152;11.584;2024-01-10T14:09:39;-3.30;99.90
4453;DHT22;2239;48.152;11.584;2024-01-10T14:12:05;-3.30;99.90
4453;DHT22;2239;48.152;11.584;2024-01-10T14:14:31;-3.40;99.90
4453;DHT22;2239;48.152;11.584;2024-01-10T14:17:00;-3.50;99.90
4453;DHT22;2239;48.152;11.584;2024-01-10T14:19:25;-3.60;99.90
4453;DHT22;2239;48.152;11.584;2024-01-10T14:21:52;-3.60;99.90
4453;DHT22;2239;48.152;11.584;2024-01-10T14:24:17;-3.60;99.90
4453;DHT22;2239;48.152;11.584;2024-01-10T14:26:43;-3.70;99.90
4453;DHT22;2239;48.152;11.584;2024-01-10T14:29:09;-3.70;99.90
4453;DHT22;2239;48.152;11.584;2024-01-10T14:31:35;-3.80;99.90
4453;DHT22;2239;48.152;11.584;2024-01-10T14:34:00;-3.80;99.90
4453;DHT22;2239;48.152;11.584;2024-01-10T14:36:26;-3.90;99.90
4453;DHT22;2239;48.152;11.584;2024-01-10T14:38:52;-3.90;99.90
4453;DHT22;2239;48.152;11.584;2024-01-10T14:41:17;-4.00;99.90
4453;DHT22;2239;48.152;11.584;2024-01-10T14:43:43;-4.10;99.90
4453;DHT22;2239;48.152;11.584;2024-01-10T14:46:09;-4.10;99.90
4453;DHT22;2239;48.152;11.584;2024-01-10T14:48:36;-4.10;99.90
4453;DHT22;2239;48.152;11.584;2024-01-10T14:51:02;-4.20;99.90
4453;DHT22;2239;48.152;11.584;2024-01-10T14:53:28;-4.10;99.90
4453;DHT22;2239;48.152;11.584;2024-01-10T14:55:53;-4.10;99.90
4453;DHT22;2239;48.152;11.584;2024-01-10T14:58:19;-4.20;99.90
4453;DHT22;2239;48.152;11.584;2024-01-10T15:00:45;-4.10;99.90
4453;DHT22;2239;48.152;11.584;2024-01-10T15:03:11;-4.00;99.90
4453;DHT22;2239;48.152;11.584;2024-01-10T15:05:38;-4.10;99.90
4453;DHT22;2239;48.152;11.584;2024-01-10T15:08:04;-4.20;99.90
4453;DHT22;2239;48.152;11.584;2024-01-10T15:10:37;-4.20;99.90
4453;DHT22;2239;48.152;11.584;2024-01-10T15:13:10;-4.20;99.90
4453;DHT22;2239;48.152;11.584;2024-01-10T15:15:41;-4.20;99.90
4453;DHT22;2239;48.152;11.584;2024-01-10T15:18:07;-4.10;99.90
4453;DHT22;2239;48.152;11.584;2024-01-10T15:20:33;-4.20;99.90
4453;DHT22;2239;48.152;11.584;2024-01-10T15:22:58;-4.30;99.90
4453;DHT22;2239;48.152;11.584;2024-01-10T15:25:24;-4.20;99.90
4453;DHT22;2239;48.152;11.584;2024-01-10T15:27:53;-4.20;99.90
4453;DHT22;2239;48.152;11.584;2024-01-10T15:30:19;-4.20;99.90
4453;DHT22;2239;48.152;11.584;2024-01-10T15:32:47;-4.20;99.90
4453;DHT22;2239;48.152;11.584;2024-01-10T15:35:13;-4.10;99.90
4453;DHT22;2239;48.152;11.584;2024-01-10T15:37:39;-4.10;99.90
4453;DHT22;2239;48.152;11.584;2024-01-10T15:40:09;-4.10;99.90
4453;DHT22;2239;48.152;11.584;2024-01-10T15:42:37;-4.20;99.90
4453;DHT22;2239;48.152;11.584;2024-01-10T15:45:03;-4.20;99.90
4453;DHT22;2239;48.152;11.584;2024-01-10T15:47:29;-4.30;99.90
4453;DHT22;2239;48.152;11.584;2024-01-10T15:49:54;-4.20;99.90
4453;DHT22;2239;48.152;11.584;2024-01-10T15:52:20;-4.30;99.90
4453;DHT22;2239;48.152;11.584;2024-01-10T15:54:54;-4.30;99.90
4453;DHT22;2239;48.152;11.584;2024-01-10T15:57:20;-4.30;99.90